Time;durP1;ratioP1;P1;durP2;ratioP2;P2;SDS_P1;SDS_P2;PMS_P1;PMS_P2;Temp;Humidity;BMP_temperature;BMP_pressure;BME280_temperature;BME280_humidity;BME280_pressure;Samples;Min_cycle;Max_cycle;Signal;HPM_P1;HPM_P2
2021/05/29 00:00:15;;;;;;;2.25;1.52;;;13.00;72.00;;;;;;2072077;28;20034;-86
2021/05/29 00:01:16;;;;;;;2.65;1.80;;;13.00;72.10;;;;;;2051648;28;20031;-86
2021/05/29 00:02:17;;;;;;;2.53;1.60;;;12.90;72.10;;;;;;2065038;28;20401;-86
2021/05/29 00:03:19;;;;;;;3.30;1.92;;;13.00;72.30;;;;;;2065026;28;20056;-86
2021/05/29 00:04:20;;;;;;;2.78;1.73;;;12.90;72.30;;;;;;2069852;28;20172;-86
2021/05/29 00:05:20;;;;;;;2.88;1.60;;;12.90;72.40;;;;;;2072908;28;20037;-86
2021/05/29 00:06:21;;;;;;;3.60;1.80;;;12.90;72.50;;;;;;2072714;28;20030;-86
2021/05/29 00:07:21;;;;;;;2.60;1.58;;;12.80;72.50;;;;;;2057375;28;20122;-86
2021/05/29 00:08:22;;;;;;;2.55;1.67;;;12.80;72.60;;;;;;2065195;28;20045;-86
2021/05/29 00:09:23;;;;;;;2.45;1.50;;;12.90;72.70;;;;;;2069310;28;20031;-86
2021/05/29 00:10:24;;;;;;;2.67;1.67;;;12.80;72.70;;;;;;2065485;28;20030;-86
2021/05/29 00:11:24;;;;;;;2.70;1.77;;;12.80;72.80;;;;;;2064955;28;20053;-86
2021/05/29 00:12:25;;;;;;;3.38;1.98;;;12.80;72.90;;;;;;2056698;28;20062;-85
2021/05/29 00:13:28;;;;;;;3.15;1.90;;;12.80;73.00;;;;;;2064966;28;20145;-85
2021/05/29 00:14:30;;;;;;;3.67;2.00;;;12.70;73.10;;;;;;2069148;28;20502;-85
2021/05/29 00:15:31;;;;;;;5.07;2.35;;;12.70;73.20;;;;;;2065655;28;20022;-85
2021/05/29 00:16:31;;;;;;;4.28;2.22;;;12.70;73.30;;;;;;2068540;28;20130;-86
2021/05/29 00:17:32;;;;;;;3.83;2.22;;;12.70;73.40;;;;;;2065845;28;20029;-86
2021/05/29 00:18:32;;;;;;;3.05;2.08;;;12.70;73.50;;;;;;2065803;28;20034;-85
2021/05/29 00:19:34;;;;;;;3.78;2.30;;;12.60;73.60;;;;;;2072520;28;20041;-86
2021/05/29 00:20:40;;;;;;;3.42;2.10;;;12.60;73.70;;;;;;2059722;28;20057;-86
2021/05/29 00:21:40;;;;;;;3.60;2.20;;;12.50;73.80;;;;;;2061351;28;20030;-86
2021/05/29 00:22:41;;;;;;;4.32;2.15;;;12.50;73.90;;;;;;2064362;28;20030;-86
2021/05/29 00:23:42;;;;;;;3.92;2.50;;;12.50;73.90;;;;;;2059057;28;20042;-86
2021/05/29 00:24:43;;;;;;;4.18;2.10;;;12.50;74.10;;;;;;2076553;28;20026;-86
2021/05/29 00:25:44;;;;;;;5.28;2.92;;;12.50;74.10;;;;;;2072258;28;20034;-86
2021/05/29 00:26:45;;;;;;;4.70;2.60;;;12.50;74.20;;;;;;2061703;28;20536;-85
2021/05/29 00:27:46;;;;;;;4.15;2.35;;;12.50;74.30;;;;;;2065581;28;20030;-85
2021/05/29 00:28:46;;;;;;;3.42;2.47;;;12.50;74.40;;;;;;2064953;28;20121;-86
2021/05/29 00:29:47;;;;;;;3.40;2.30;;;12.40;74.40;;;;;;2072953;28;20026;-85
2021/05/29 00:30:48;;;;;;;3.92;2.45;;;12.40;74.40;;;;;;2062895;28;20034;-84
2021/05/29 00:31:48;;;;;;;4.07;2.60;;;12.40;74.50;;;;;;2056958;28;20026;-85
2021/05/29 00:32:49;;;;;;;5.40;3.15;;;12.40;74.60;;;;;;2069196;28;20030;-85
2021/05/29 00:33:50;;;;;;;3.50;2.33;;;12.40;74.70;;;;;;2063437;28;20045;-85
2021/05/29 00:34:51;;;;;;;4.80;2.92;;;12.40;74.70;;;;;;2056500;28;20401;-85
2021/05/29 00:35:51;;;;;;;4.65;2.70;;;12.40;74.70;;;;;;2063388;28;20065;-85
2021/05/29 00:36:52;;;;;;;4.50;2.75;;;12.40;74.80;;;;;;2063703;28;20027;-86
2021/05/29 00:37:53;;;;;;;4.47;2.83;;;12.40;74.90;;;;;;2060723;28;20285;-86
2021/05/29 00:38:53;;;;;;;4.43;2.58;;;12.40;74.90;;;;;;2058454;28;20051;-86
2021/05/29 00:39:54;;;;;;;5.28;2.92;;;12.40;75.00;;;;;;2078616;28;20455;-86
2021/05/29 00:40:54;;;;;;;4.25;2.80;;;12.40;75.70;;;;;;2079741;28;20033;-86
2021/05/29 00:41:55;;;;;;;6.50;3.33;;;12.30;75.00;;;;;;2069378;28;20035;-85
2021/05/29 00:42:56;;;;;;;4.88;3.00;;;12.40;75.20;;;;;;2063226;28;20034;-85
2021/05/29 00:43:57;;;;;;;5.60;3.05;;;12.30;75.20;;;;;;2071364;28;20018;-85
2021/05/29 00:44:58;;;;;;;5.63;3.30;;;12.30;75.20;;;;;;2063735;28;20467;-85
2021/05/29 00:45:59;;;;;;;4.57;3.08;;;12.30;75.30;;;;;;2064768;28;20070;-86
2021/05/29 00:47:00;;;;;;;5.57;2.85;;;12.30;75.40;;;;;;2069347;28;20084;-86
2021/05/29 00:48:02;;;;;;;5.53;2.90;;;12.30;75.50;;;;;;2068622;28;20076;-85
2021/05/29 00:49:03;;;;;;;4.18;2.65;;;12.20;75.50;;;;;;2072495;28;20053;-86
2021/05/29 00:50:10;;;;;;;4.43;2.75;;;12.20;75.50;;;;;;2062942;28;20038;-86
2021/05/29 00:51:11;;;;;;;4.00;2.67;;;12.20;75.60;;;;;;2071951;28;20030;-87
2021/05/29 00:52:14;;;;;;;5.63;2.90;;;12.20;75.60;;;;;;2070293;28;20030;-86
2021/05/29 00:53:16;;;;;;;5.82;2.90;;;12.20;75.70;;;;;;2065304;28;20037;-86
2021/05/29 00:54:17;;;;;;;5.18;2.78;;;12.20;75.70;;;;;;2069831;28;20030;-85
2021/05/29 00:55:18;;;;;;;5.28;2.83;;;12.20;76.40;;;;;;2068468;28;20116;-85
2021/05/29 00:56:18;;;;;;;5.53;2.90;;;12.20;75.80;;;;;;2080177;28;20417;-86
2021/05/29 00:57:20;;;;;;;4.30;2.83;;;12.20;75.80;;;;;;2072726;28;20081;-85
2021/05/29 00:58:22;;;;;;;4.93;3.00;;;12.20;75.90;;;;;;2072371;28;20030;-84
2021/05/29 00:59:23;;;;;;;5.28;2.70;;;12.20;75.90;;;;;;2072810;28;20041;-84
2021/05/29 01:00:24;;;;;;;4.57;2.40;;;12.20;75.90;;;;;;2072425;28;20076;-85
2021/05/29 01:01:24;;;;;;;4.60;3.00;;;12.20;75.90;;;;;;2072536;28;20026;-85
2021/05/29 01:02:26;;;;;;;4.47;2.55;;;12.20;75.90;;;;;;2072802;28;20107;-86
2021/05/29 01:03:29;;;;;;;4.22;2.75;;;12.20;75.80;;;;;;2071900;28;20053;-85
2021/05/29 01:04:30;;;;;;;3.72;2.17;;;12.20;75.90;;;;;;2056000;28;20023;-85
2021/05/29 01:05:30;;;;;;;4.15;2.45;;;12.20;75.90;;;;;;2072882;28;20026;-85
2021/05/29 01:06:31;;;;;;;3.97;2.25;;;12.20;75.90;;;;;;2080871;28;20033;-85
2021/05/29 01:07:32;;;;;;;4.45;2.67;;;12.20;75.80;;;;;;2055884;28;20034;-86
2021/05/29 01:08:33;;;;;;;3.80;2.50;;;12.20;75.80;;;;;;2065769;28;20078;-85
2021/05/29 01:09:36;;;;;;;4.35;2.63;;;12.20;75.80;;;;;;2065533;28;20376;-85
2021/05/29 01:10:39;;;;;;;3.40;2.17;;;12.20;75.90;;;;;;2058959;28;20082;-84
2021/05/29 01:11:39;;;;;;;3.58;2.05;;;12.20;75.90;;;;;;2079565;28;20029;-85
2021/05/29 01:12:40;;;;;;;3.40;2.00;;;12.20;75.90;;;;;;2077086;28;20444;-86
2021/05/29 01:13:41;;;;;;;3.28;1.90;;;12.20;75.90;;;;;;2064058;28;20109;-86
2021/05/29 01:14:53;;;;;;;3.75;2.22;;;12.20;75.90;;;;;;2072624;28;20120;-86
2021/05/29 01:15:57;;;;;;;4.50;2.05;;;12.20;75.90;;;;;;2083286;28;20478;-86
2021/05/29 01:17:02;;;;;;;3.17;1.95;;;12.20;75.80;;;;;;2062806;28;20413;-86
2021/05/29 01:18:04;;;;;;;3.85;1.98;;;12.20;75.80;;;;;;2064356;28;20085;-85
2021/05/29 01:19:13;;;;;;;3.97;1.80;;;12.20;75.80;;;;;;2070744;28;20196;-86
2021/05/29 01:20:14;;;;;;;4.00;1.85;;;12.20;75.80;;;;;;2068859;28;20098;-86
2021/05/29 01:21:15;;;;;;;3.60;2.08;;;12.20;75.80;;;;;;2068648;28;20094;-86
2021/05/29 01:22:44;;;;;;;3.45;1.77;;;12.20;75.70;;;;;;2068321;28;20041;-86
2021/05/29 01:23:45;;;;;;;3.72;1.80;;;12.20;75.70;;;;;;2064719;28;20034;-86
2021/05/29 01:24:45;;;;;;;2.70;1.70;;;12.10;75.70;;;;;;2068701;28;20030;-86
2021/05/29 01:25:47;;;;;;;2.78;1.63;;;12.10;75.70;;;;;;2071438;28;20026;-84
2021/05/29 01:26:50;;;;;;;2.60;1.63;;;12.10;75.80;;;;;;2079892;28;20116;-85
2021/05/29 01:28:25;;;;;;;3.00;1.60;;;12.10;75.70;;;;;;2071964;28;20451;-86
2021/05/29 01:29:26;;;;;;;2.83;1.50;;;12.10;75.60;;;;;;2082195;28;20051;-85
2021/05/29 01:30:30;;;;;;;3.25;1.60;;;12.10;75.60;;;;;;2071672;28;20040;-86
2021/05/29 01:31:32;;;;;;;2.53;1.48;;;12.10;75.60;;;;;;2065145;28;20023;-86
2021/05/29 01:32:33;;;;;;;2.53;1.58;;;12.10;75.60;;;;;;2079981;28;20044;-86
2021/05/29 01:33:36;;;;;;;2.28;1.50;;;12.10;75.50;;;;;;2072223;28;20033;-86
2021/05/29 01:34:37;;;;;;;2.30;1.50;;;12.00;75.50;;;;;;2063821;28;20054;-86
2021/05/29 01:35:38;;;;;;;2.67;1.60;;;12.10;75.50;;;;;;2062700;28;20030;-86
2021/05/29 01:36:40;;;;;;;2.17;1.35;;;12.00;75.40;;;;;;2067213;28;20037;-86
2021/05/29 01:37:41;;;;;;;2.58;1.38;;;12.00;75.40;;;;;;2050827;28;20046;-86
2021/05/29 01:38:42;;;;;;;3.75;1.60;;;12.00;75.40;;;;;;2060781;28;20030;-86
2021/05/29 01:39:42;;;;;;;2.20;1.40;;;12.00;75.40;;;;;;2061118;28;20129;-85
2021/05/29 01:40:44;;;;;;;2.60;1.40;;;12.00;75.40;;;;;;2062347;28;20058;-86
2021/05/29 01:41:45;;;;;;;2.05;1.25;;;12.00;75.30;;;;;;2057807;28;20130;-86
2021/05/29 01:42:46;;;;;;;1.92;1.30;;;11.90;75.30;;;;;;2066932;28;20038;-86
2021/05/29 01:43:49;;;;;;;1.67;1.15;;;11.90;75.30;;;;;;2072142;28;20022;-86
2021/05/29 01:44:49;;;;;;;2.38;1.35;;;11.90;75.30;;;;;;2058351;28;20425;-86
2021/05/29 01:45:51;;;;;;;2.97;1.35;;;11.90;75.30;;;;;;2067538;28;20030;-86
2021/05/29 01:46:53;;;;;;;3.13;1.60;;;11.90;75.90;;;;;;2064498;28;20042;-85
2021/05/29 01:47:54;;;;;;;1.45;1.17;;;11.90;75.40;;;;;;2061088;28;20413;-86
2021/05/29 01:48:54;;;;;;;2.63;1.50;;;11.90;75.40;;;;;;2077018;28;20097;-85
2021/05/29 01:49:55;;;;;;;2.95;1.33;;;11.90;75.30;;;;;;2077267;28;20039;-85
2021/05/29 01:50:58;;;;;;;3.22;1.38;;;11.90;75.30;;;;;;2074200;28;20015;-84
2021/05/29 01:51:59;;;;;;;2.00;1.33;;;11.90;75.30;;;;;;2082003;28;20026;-87
2021/05/29 01:53:04;;;;;;;2.03;1.35;;;11.90;75.30;;;;;;2081367;28;20026;-85
2021/05/29 01:54:05;;;;;;;2.20;1.42;;;11.80;75.30;;;;;;2081089;28;20021;-85
2021/05/29 01:55:06;;;;;;;3.03;1.40;;;11.80;75.30;;;;;;2086021;28;20018;-85
2021/05/29 01:56:08;;;;;;;2.92;1.55;;;11.80;75.40;;;;;;2074206;28;20032;-85
2021/05/29 01:57:08;;;;;;;2.30;1.60;;;11.80;75.40;;;;;;2082011;28;20056;-85
2021/05/29 01:58:09;;;;;;;2.88;1.60;;;11.80;75.40;;;;;;2063082;28;20050;-86
2021/05/29 01:59:10;;;;;;;2.75;1.50;;;11.80;75.50;;;;;;2072657;28;20029;-85
2021/05/29 02:00:12;;;;;;;2.47;1.50;;;11.80;76.10;;;;;;2085928;28;20093;-84
2021/05/29 02:01:15;;;;;;;2.53;1.42;;;11.80;75.50;;;;;;2084597;28;20036;-84
2021/05/29 02:02:15;;;;;;;2.60;1.52;;;11.70;75.50;;;;;;2089720;28;20049;-85
2021/05/29 02:03:16;;;;;;;2.35;1.50;;;11.70;75.50;;;;;;2078566;28;20037;-85
2021/05/29 02:04:17;;;;;;;4.05;1.90;;;11.70;75.50;;;;;;2085079;28;20042;-84
2021/05/29 02:05:19;;;;;;;2.92;1.60;;;11.70;75.50;;;;;;2076014;28;20041;-86
2021/05/29 02:06:19;;;;;;;2.88;1.70;;;11.70;75.50;;;;;;2072835;28;20563;-86
2021/05/29 02:07:23;;;;;;;3.53;1.70;;;11.70;75.50;;;;;;2076840;28;20052;-86
2021/05/29 02:08:24;;;;;;;3.08;1.65;;;11.70;75.50;;;;;;2077040;28;20053;-86
2021/05/29 02:09:25;;;;;;;2.63;1.60;;;11.70;75.60;;;;;;2071594;28;20435;-86
2021/05/29 02:10:27;;;;;;;3.75;1.70;;;11.70;75.60;;;;;;2064556;28;20123;-86
2021/05/29 02:11:27;;;;;;;2.38;1.60;;;11.70;75.60;;;;;;2072183;28;20031;-86
2021/05/29 02:12:28;;;;;;;2.58;1.60;;;11.70;75.60;;;;;;2062865;28;20035;-85
2021/05/29 02:13:31;;;;;;;2.92;1.67;;;11.70;75.60;;;;;;2047893;28;20501;-84
2021/05/29 02:14:32;;;;;;;2.40;1.40;;;11.70;75.60;;;;;;2063043;28;20431;-85
2021/05/29 02:15:37;;;;;;;3.08;1.70;;;11.60;75.60;;;;;;2069240;28;20076;-85
2021/05/29 02:16:37;;;;;;;3.38;1.65;;;11.60;75.60;;;;;;2072276;28;20076;-86
2021/05/29 02:17:38;;;;;;;3.83;1.70;;;11.60;75.60;;;;;;2073761;28;20058;-85
2021/05/29 02:18:40;;;;;;;2.47;1.50;;;11.60;75.50;;;;;;2081732;28;20033;-85
2021/05/29 02:19:41;;;;;;;2.35;1.50;;;11.60;75.50;;;;;;2081741;28;20124;-85
2021/05/29 02:20:48;;;;;;;2.53;1.50;;;11.60;75.60;;;;;;2077541;28;20178;-84
2021/05/29 02:21:48;;;;;;;2.83;1.58;;;11.60;75.60;;;;;;2075825;28;20010;-86
2021/05/29 02:22:49;;;;;;;3.33;1.67;;;11.60;75.60;;;;;;2073350;28;20094;-85
2021/05/29 02:23:51;;;;;;;2.42;1.50;;;11.60;75.60;;;;;;2064634;28;20031;-86
2021/05/29 02:24:52;;;;;;;3.40;1.75;;;11.50;75.60;;;;;;2070809;28;20548;-86
2021/05/29 02:25:55;;;;;;;2.92;1.75;;;11.60;75.60;;;;;;2074343;28;20041;-86
2021/05/29 02:26:56;;;;;;;2.72;1.50;;;11.50;75.60;;;;;;2070428;28;20033;-85
2021/05/29 02:27:56;;;;;;;3.63;2.10;;;11.50;75.70;;;;;;2071779;28;20044;-84
2021/05/29 02:28:59;;;;;;;2.88;1.80;;;11.50;75.70;;;;;;2062860;28;20030;-85
2021/05/29 02:30:00;;;;;;;3.97;1.90;;;11.50;75.80;;;;;;2064688;28;20042;-85
2021/05/29 02:31:03;;;;;;;3.10;1.70;;;11.50;75.80;;;;;;2069184;28;20030;-85
2021/05/29 02:32:04;;;;;;;3.38;1.77;;;11.50;75.80;;;;;;2069111;28;20481;-86
2021/05/29 02:33:06;;;;;;;3.83;2.03;;;11.50;75.80;;;;;;2056390;28;20150;-85
2021/05/29 02:34:07;;;;;;;2.72;1.77;;;11.50;75.90;;;;;;2058472;28;20039;-85
2021/05/29 02:35:08;;;;;;;4.03;2.17;;;11.50;75.90;;;;;;2065928;28;20086;-86
2021/05/29 02:36:09;;;;;;;3.03;1.85;;;11.40;75.90;;;;;;2064037;28;20031;-86
2021/05/29 02:37:10;;;;;;;3.58;1.70;;;11.50;76.00;;;;;;2055976;28;20106;-86
2021/05/29 02:38:11;;;;;;;4.38;2.03;;;11.50;76.00;;;;;;2063990;28;20022;-85
2021/05/29 02:39:12;;;;;;;4.10;2.15;;;11.50;76.10;;;;;;2071290;28;20447;-85
2021/05/29 02:40:13;;;;;;;4.03;1.90;;;11.50;76.10;;;;;;2071705;28;20038;-86
2021/05/29 02:41:14;;;;;;;2.92;2.08;;;11.50;76.10;;;;;;2070920;28;20026;-86
2021/05/29 02:42:15;;;;;;;3.25;2.00;;;11.40;76.10;;;;;;2068731;28;20030;-85
2021/05/29 02:43:15;;;;;;;4.00;2.20;;;11.40;76.10;;;;;;2062251;28;20554;-86
2021/05/29 02:44:16;;;;;;;3.45;2.17;;;11.40;76.10;;;;;;2063259;28;20030;-86
2021/05/29 02:45:17;;;;;;;4.63;2.28;;;11.40;76.20;;;;;;2064129;28;20030;-86
2021/05/29 02:46:18;;;;;;;4.80;2.17;;;11.40;76.20;;;;;;2066790;28;20107;-86
2021/05/29 02:47:19;;;;;;;3.17;1.90;;;11.40;76.30;;;;;;2041938;28;20023;-86
2021/05/29 02:48:20;;;;;;;3.17;2.03;;;11.40;76.30;;;;;;2048152;28;20526;-85
2021/05/29 02:49:20;;;;;;;3.95;2.10;;;11.40;76.40;;;;;;2061033;28;20035;-85
2021/05/29 02:50:22;;;;;;;3.47;2.13;;;11.40;76.50;;;;;;2067780;28;20026;-86
2021/05/29 02:51:23;;;;;;;4.70;2.35;;;11.40;76.50;;;;;;2064397;28;20027;-87
2021/05/29 02:52:23;;;;;;;3.33;1.85;;;11.40;76.60;;;;;;2068680;28;20480;-87
2021/05/29 02:53:24;;;;;;;2.97;1.88;;;11.40;76.50;;;;;;2072864;28;20026;-87
2021/05/29 02:54:25;;;;;;;3.40;2.15;;;11.40;76.60;;;;;;2061565;28;20469;-87
2021/05/29 02:55:26;;;;;;;3.33;2.10;;;11.40;76.60;;;;;;2060153;28;20038;-87
2021/05/29 02:56:26;;;;;;;4.03;2.03;;;11.40;76.60;;;;;;2076059;28;20075;-87
2021/05/29 02:57:27;;;;;;;4.68;1.95;;;11.30;76.60;;;;;;2062474;28;20472;-87
2021/05/29 02:58:28;;;;;;;3.80;2.00;;;11.30;76.60;;;;;;2073387;28;20029;-87
2021/05/29 02:59:28;;;;;;;3.03;1.77;;;11.30;76.60;;;;;;2072378;28;20038;-86
2021/05/29 03:00:44;;;;;;;3.28;1.77;;;11.30;76.60;;;;;;2064080;28;20028;-86
2021/05/29 03:01:44;;;;;;;4.15;1.95;;;11.30;76.70;;;;;;2072081;28;20037;-86
2021/05/29 03:02:45;;;;;;;4.45;2.05;;;11.30;76.70;;;;;;2064209;28;20121;-86
2021/05/29 03:03:46;;;;;;;2.60;1.60;;;11.30;76.70;;;;;;2063024;28;20508;-86
2021/05/29 03:04:47;;;;;;;4.00;2.20;;;11.30;76.80;;;;;;2062214;28;20034;-87
2021/05/29 03:05:48;;;;;;;3.85;2.10;;;11.30;76.90;;;;;;2071610;28;20522;-86
2021/05/29 03:06:49;;;;;;;2.58;1.95;;;11.20;76.80;;;;;;2072166;28;20018;-86
2021/05/29 03:07:51;;;;;;;3.17;1.85;;;11.20;76.90;;;;;;2074706;28;20057;-86
2021/05/29 03:08:52;;;;;;;2.50;1.63;;;11.30;77.00;;;;;;2056800;28;20038;-86
2021/05/29 03:09:53;;;;;;;3.08;2.08;;;11.30;77.00;;;;;;2069896;28;20128;-85
2021/05/29 03:10:54;;;;;;;3.10;1.98;;;11.20;77.00;;;;;;2063728;28;20062;-85
2021/05/29 03:11:55;;;;;;;3.40;2.08;;;11.20;77.00;;;;;;2062430;28;20057;-84
2021/05/29 03:12:56;;;;;;;3.60;2.13;;;11.20;77.00;;;;;;2072955;28;20018;-86
2021/05/29 03:13:57;;;;;;;4.38;2.20;;;11.20;77.10;;;;;;2076652;28;20546;-85
2021/05/29 03:14:57;;;;;;;3.08;1.90;;;11.20;77.10;;;;;;2055995;28;20031;-86
2021/05/29 03:15:58;;;;;;;4.10;2.00;;;11.20;77.20;;;;;;2057603;28;20076;-86
2021/05/29 03:16:59;;;;;;;3.70;2.00;;;11.20;77.20;;;;;;2057589;28;20066;-86
2021/05/29 03:18:00;;;;;;;3.60;2.00;;;11.20;77.20;;;;;;2065126;28;20018;-87
2021/05/29 03:19:00;;;;;;;4.28;2.47;;;11.20;77.20;;;;;;2067555;28;20027;-87
2021/05/29 03:20:02;;;;;;;4.45;2.20;;;11.20;77.30;;;;;;2062011;28;20574;-87
2021/05/29 03:21:02;;;;;;;4.53;2.17;;;11.20;77.40;;;;;;2065962;28;20100;-87
2021/05/29 03:22:03;;;;;;;3.70;2.38;;;11.20;77.50;;;;;;2074349;28;20029;-87
2021/05/29 03:23:05;;;;;;;5.00;2.83;;;11.10;77.50;;;;;;2076301;28;20030;-85
2021/05/29 03:24:06;;;;;;;4.65;2.78;;;11.10;77.50;;;;;;2065376;28;20019;-85
2021/05/29 03:25:07;;;;;;;3.80;2.30;;;11.10;77.50;;;;;;2056332;28;20539;-86
2021/05/29 03:26:09;;;;;;;4.22;2.50;;;11.10;77.60;;;;;;2057341;28;20665;-86
2021/05/29 03:27:15;;;;;;;5.50;2.92;;;11.10;77.60;;;;;;2057338;28;20122;-86
2021/05/29 03:28:16;;;;;;;3.78;2.45;;;11.10;77.70;;;;;;2066253;28;20076;-86
2021/05/29 03:29:17;;;;;;;3.80;2.40;;;11.10;77.70;;;;;;2066318;28;20080;-85
2021/05/29 03:30:21;;;;;;;5.32;2.85;;;11.10;77.90;;;;;;2071282;28;20030;-86
2021/05/29 03:31:22;;;;;;;3.88;2.40;;;11.10;77.90;;;;;;2076763;28;20029;-86
2021/05/29 03:32:22;;;;;;;4.55;2.50;;;11.10;77.90;;;;;;2073456;28;20033;-85
2021/05/29 03:33:23;;;;;;;5.68;2.90;;;11.00;77.90;;;;;;2068528;28;20026;-86
2021/05/29 03:34:24;;;;;;;4.20;2.67;;;11.00;77.90;;;;;;2055399;28;20061;-86
2021/05/29 03:35:25;;;;;;;4.35;2.60;;;11.00;77.90;;;;;;2054519;28;20042;-85
2021/05/29 03:36:25;;;;;;;6.13;3.20;;;11.00;78.00;;;;;;2062632;28;20050;-85
2021/05/29 03:37:26;;;;;;;4.03;2.65;;;11.00;78.10;;;;;;2069907;28;20078;-86
2021/05/29 03:38:27;;;;;;;4.00;2.60;;;11.00;78.10;;;;;;2061415;28;20037;-85
2021/05/29 03:39:27;;;;;;;4.60;2.67;;;11.00;78.20;;;;;;2060073;28;20500;-85
2021/05/29 03:40:28;;;;;;;4.60;2.78;;;11.00;78.30;;;;;;2059477;28;20084;-85
2021/05/29 03:41:29;;;;;;;4.40;2.75;;;11.00;78.30;;;;;;2066086;28;20054;-85
2021/05/29 03:42:29;;;;;;;5.00;2.83;;;11.00;78.30;;;;;;2065251;28;20037;-85
2021/05/29 03:43:30;;;;;;;4.20;2.55;;;11.00;78.30;;;;;;2065071;28;20023;-85
2021/05/29 03:44:31;;;;;;;3.80;2.58;;;11.00;78.40;;;;;;2071132;28;20026;-86
2021/05/29 03:45:32;;;;;;;4.35;2.70;;;11.00;78.40;;;;;;2067915;28;20080;-85
2021/05/29 03:46:32;;;;;;;4.35;3.00;;;11.00;78.40;;;;;;2071459;28;20121;-86
2021/05/29 03:47:33;;;;;;;4.35;2.78;;;11.00;78.40;;;;;;2078433;28;20033;-86
2021/05/29 03:48:34;;;;;;;4.45;2.80;;;11.00;78.50;;;;;;2078987;28;20029;-85
2021/05/29 03:49:35;;;;;;;4.65;2.70;;;11.00;78.50;;;;;;2073498;28;20041;-85
2021/05/29 03:50:38;;;;;;;5.05;2.70;;;11.00;78.50;;;;;;2073245;28;20022;-85
2021/05/29 03:51:39;;;;;;;5.43;2.80;;;11.00;78.50;;;;;;2066803;28;20467;-85
2021/05/29 03:52:44;;;;;;;5.57;3.20;;;11.00;78.50;;;;;;2054371;28;20027;-86
2021/05/29 03:53:45;;;;;;;5.05;2.95;;;11.00;78.60;;;;;;2073539;28;20025;-86
2021/05/29 03:54:45;;;;;;;4.50;2.95;;;11.00;78.60;;;;;;2075841;28;20495;-86
2021/05/29 03:55:47;;;;;;;5.18;2.80;;;11.00;78.50;;;;;;2064270;28;20135;-85
2021/05/29 03:56:48;;;;;;;4.32;2.65;;;11.00;78.60;;;;;;2061068;28;20027;-85
2021/05/29 03:57:49;;;;;;;5.57;3.03;;;11.00;78.60;;;;;;2054206;28;20030;-85
2021/05/29 03:58:50;;;;;;;4.82;3.17;;;11.00;78.70;;;;;;2067355;28;20021;-85
2021/05/29 03:59:51;;;;;;;4.47;2.60;;;10.90;78.70;;;;;;2067247;28;20025;-85
2021/05/29 04:00:51;;;;;;;5.03;2.60;;;11.00;78.80;;;;;;2064268;28;20038;-85
2021/05/29 04:01:52;;;;;;;4.57;3.05;;;11.00;78.80;;;;;;2057193;28;20135;-85
2021/05/29 04:02:53;;;;;;;4.82;2.80;;;11.00;78.80;;;;;;2068202;28;20073;-86
2021/05/29 04:03:53;;;;;;;4.93;2.88;;;11.00;78.80;;;;;;2062972;28;20054;-85
2021/05/29 04:04:54;;;;;;;4.75;2.95;;;11.00;78.80;;;;;;2065522;28;20362;-86
2021/05/29 04:05:55;;;;;;;4.10;2.60;;;11.00;78.80;;;;;;2081536;28;20022;-86
2021/05/29 04:06:55;;;;;;;4.25;2.67;;;11.00;78.90;;;;;;2062095;28;20093;-85
2021/05/29 04:07:56;;;;;;;4.72;2.90;;;11.00;78.80;;;;;;2057075;28;20501;-86
2021/05/29 04:08:56;;;;;;;4.90;2.90;;;11.00;78.80;;;;;;2057121;28;20031;-85
2021/05/29 04:09:57;;;;;;;4.53;2.95;;;11.00;78.80;;;;;;2059990;28;20046;-85
2021/05/29 04:10:58;;;;;;;3.90;2.72;;;11.10;78.90;;;;;;2059712;28;20572;-85
2021/05/29 04:11:58;;;;;;;5.05;2.67;;;11.00;78.80;;;;;;2065971;28;22200;-85
2021/05/29 04:13:00;;;;;;;3.95;2.60;;;11.10;79.50;;;;;;2064748;28;20101;-85
2021/05/29 04:14:01;;;;;;;4.45;2.53;;;11.10;78.80;;;;;;2067955;28;20085;-85
2021/05/29 04:15:03;;;;;;;4.65;2.53;;;11.10;78.80;;;;;;2069303;28;20026;-85
2021/05/29 04:16:04;;;;;;;5.30;3.00;;;11.10;78.80;;;;;;2070040;28;20042;-85
2021/05/29 04:17:05;;;;;;;4.03;2.70;;;11.10;78.80;;;;;;2066172;28;20022;-85
2021/05/29 04:18:06;;;;;;;4.45;2.75;;;11.10;78.80;;;;;;2068745;28;20121;-85
2021/05/29 04:19:06;;;;;;;3.55;2.60;;;11.10;78.80;;;;;;2069177;28;20027;-85
2021/05/29 04:20:09;;;;;;;4.00;2.50;;;11.10;79.40;;;;;;2064830;28;20570;-85
2021/05/29 04:21:10;;;;;;;5.40;2.67;;;11.20;78.80;;;;;;2071924;28;20147;-85
2021/05/29 04:22:10;;;;;;;3.63;2.30;;;11.20;78.70;;;;;;2068513;28;20112;-86
2021/05/29 04:23:11;;;;;;;4.80;2.63;;;11.20;78.70;;;;;;2061077;28;20030;-85
2021/05/29 04:24:12;;;;;;;4.97;2.80;;;11.20;78.60;;;;;;2057530;28;20476;-85
2021/05/29 04:25:15;;;;;;;4.80;2.60;;;11.20;78.60;;;;;;2057524;28;20023;-85
2021/05/29 04:26:16;;;;;;;4.05;2.40;;;11.30;78.60;;;;;;2072248;28;20022;-85
2021/05/29 04:27:18;;;;;;;4.88;2.65;;;11.20;78.60;;;;;;2074408;28;20454;-85
2021/05/29 04:28:19;;;;;;;4.47;3.10;;;11.30;78.60;;;;;;2065648;28;20447;-86
2021/05/29 04:29:20;;;;;;;4.15;2.58;;;11.30;78.60;;;;;;2063758;28;20042;-85
2021/05/29 04:30:23;;;;;;;4.25;2.70;;;11.30;78.60;;;;;;2070745;28;20488;-86
2021/05/29 04:31:24;;;;;;;4.03;2.42;;;11.30;78.70;;;;;;2080223;28;20053;-86
2021/05/29 04:32:24;;;;;;;4.63;2.70;;;11.20;78.60;;;;;;2064571;28;20582;-85
2021/05/29 04:33:25;;;;;;;4.15;2.60;;;11.20;78.60;;;;;;2060441;28;20492;-85
2021/05/29 04:34:26;;;;;;;4.93;2.67;;;11.20;78.60;;;;;;2049257;28;20039;-86
2021/05/29 04:35:27;;;;;;;3.92;2.60;;;11.30;78.60;;;;;;2056542;28;20015;-85
2021/05/29 04:36:27;;;;;;;4.30;2.65;;;11.30;78.70;;;;;;2056901;28;20037;-85
2021/05/29 04:37:28;;;;;;;4.78;2.60;;;11.30;78.70;;;;;;2067830;28;20034;-85
2021/05/29 04:38:29;;;;;;;3.83;2.45;;;11.30;78.70;;;;;;2072087;28;20121;-85
2021/05/29 04:39:30;;;;;;;4.40;2.63;;;11.30;78.70;;;;;;2065970;28;20035;-85
2021/05/29 04:40:30;;;;;;;5.57;2.70;;;11.30;78.70;;;;;;2064786;28;20023;-86
2021/05/29 04:41:31;;;;;;;3.85;2.83;;;11.30;78.70;;;;;;2059054;28;20434;-85
2021/05/29 04:42:32;;;;;;;4.85;2.58;;;11.30;78.60;;;;;;2062900;28;20030;-85
2021/05/29 04:43:33;;;;;;;4.13;2.47;;;11.40;78.70;;;;;;2061625;28;20125;-85
2021/05/29 04:44:34;;;;;;;4.35;2.90;;;11.40;78.60;;;;;;2053557;28;20497;-85
2021/05/29 04:45:35;;;;;;;4.30;2.70;;;11.40;78.60;;;;;;2065050;28;20072;-85
2021/05/29 04:46:39;;;;;;;4.40;2.50;;;11.40;78.60;;;;;;2076410;28;20123;-86
2021/05/29 04:47:40;;;;;;;4.05;2.70;;;11.40;78.60;;;;;;2065298;28;20123;-86
2021/05/29 04:48:41;;;;;;;5.22;2.72;;;11.50;78.60;;;;;;2066133;28;20519;-85
2021/05/29 04:49:42;;;;;;;6.38;2.70;;;11.50;78.50;;;;;;2073285;28;20026;-86
2021/05/29 04:52:04;;;;;;;5.32;2.58;;;11.60;78.40;;;;;;2077351;28;20087;-85
2021/05/29 04:53:05;;;;;;;4.15;2.60;;;11.60;78.30;;;;;;2077165;28;20079;-85
2021/05/29 04:54:06;;;;;;;4.50;2.80;;;11.60;78.20;;;;;;2072727;28;20088;-85
2021/05/29 04:55:09;;;;;;;4.75;2.88;;;11.70;78.10;;;;;;2062196;28;20035;-85
2021/05/29 04:56:15;;;;;;;4.47;2.70;;;11.70;78.00;;;;;;2060678;28;20031;-86
2021/05/29 04:57:16;;;;;;;4.57;2.78;;;11.80;77.90;;;;;;2081309;28;20026;-85
2021/05/29 04:58:17;;;;;;;4.35;3.03;;;11.90;77.80;;;;;;2077608;28;20033;-85
2021/05/29 04:59:19;;;;;;;5.35;2.95;;;11.90;77.60;;;;;;2072119;28;20029;-85
2021/05/29 05:00:20;;;;;;;6.60;3.20;;;12.00;77.50;;;;;;2072659;28;20057;-85
2021/05/29 05:01:20;;;;;;;4.68;3.00;;;12.10;77.40;;;;;;2064873;28;20432;-85
2021/05/29 05:02:21;;;;;;;4.07;3.03;;;12.20;77.20;;;;;;2064338;28;20034;-85
2021/05/29 05:03:22;;;;;;;5.90;3.28;;;12.30;77.00;;;;;;2056463;28;20137;-85
2021/05/29 05:04:23;;;;;;;5.40;3.50;;;12.30;76.80;;;;;;2079564;28;20056;-84
2021/05/29 05:05:24;;;;;;;5.00;3.53;;;12.40;76.70;;;;;;2065691;28;20060;-85
2021/05/29 05:06:25;;;;;;;5.60;3.58;;;12.50;76.50;;;;;;2072061;28;20033;-85
2021/05/29 05:07:25;;;;;;;5.63;2.95;;;12.60;76.30;;;;;;2061709;28;20370;-85
2021/05/29 05:08:26;;;;;;;4.60;3.33;;;12.70;76.20;;;;;;2058584;28;20398;-85
2021/05/29 05:09:27;;;;;;;5.40;2.95;;;12.80;76.10;;;;;;2071269;28;20038;-85
2021/05/29 05:10:27;;;;;;;6.53;3.75;;;12.90;76.00;;;;;;2085711;28;20384;-86
2021/05/29 05:11:28;;;;;;;5.68;3.78;;;13.00;75.70;;;;;;2074748;28;20025;-85
2021/05/29 05:12:29;;;;;;;6.10;3.85;;;13.00;75.50;;;;;;2067921;28;20117;-85
2021/05/29 05:13:30;;;;;;;5.57;3.47;;;13.10;75.30;;;;;;2057909;28;20085;-85
2021/05/29 05:14:30;;;;;;;7.40;4.10;;;13.20;75.20;;;;;;2079072;28;20030;-85
2021/05/29 05:15:31;;;;;;;5.63;3.60;;;13.20;75.10;;;;;;2069185;28;20029;-84
2021/05/29 05:16:32;;;;;;;5.70;3.80;;;13.30;74.90;;;;;;2063132;28;20556;-85
2021/05/29 05:17:33;;;;;;;6.07;3.88;;;13.40;74.70;;;;;;2068097;28;20023;-85
2021/05/29 05:18:33;;;;;;;6.40;3.75;;;13.40;74.60;;;;;;2072569;28;20069;-85
2021/05/29 05:19:34;;;;;;;5.70;3.45;;;13.50;74.50;;;;;;2064441;28;20038;-85
2021/05/29 05:20:36;;;;;;;6.45;4.22;;;13.50;74.40;;;;;;2056936;28;20026;-85
2021/05/29 05:21:37;;;;;;;7.10;3.90;;;13.60;74.30;;;;;;2070289;28;20034;-85